Terminal Aerodrome Forecast
Issued by NWS Cheyenne, WY

Home | Current Version | Previous Version | Text Only | Print | Product List | Glossary On
Versions: 1 2 3 4 5 6 7 8 9 10 11 12 13 14 15 16 17 18 19 20 21 22 23 24 25 26 27 28 29 30 31 32 33 34 35 36 37 38 39 40 41 42 43 44 45 46 47 48 49 50
000
FTUS45 KCYS 221841 AAA
TAFCYS
TAF AMD
KCYS 221841Z 2219/2318 13011KT 6SM -RA BR BKN015 OVC025
      TEMPO 2219/2221 5SM -RA BKN006 OVC012
     FM222100 14012KT P6SM OVC025
     FM230300 15010KT P6SM OVC012
     FM230500 17010KT 4SM BR OVC006
     FM230900 16008KT 1SM BR OVC002
     FM231400 14007KT 4SM BR OVC008
     FM231600 09008KT P6SM OVC012=

USA.gov is the U.S. government's official web portal to all federal, state and local government web resources and services.